Hamburg °C
Tucson °C
Bonn °C
Lübeck °C
  20.06.2018 Ferienhaus Ostsee
Anmeldung



more...
[source: ADDS]
METAR
EDDH 201820Z 26008KT 230V300 9999 FEW048 25/14 Q1015 NOSIG =
TAF
TAF EDDH 201700Z 2018/2124 26010KT 9999 FEW045 BECMG 2019/2021 24005KT BECMG 2104/2106 4500 RA BKN007 BECMG 2106/2108 9999 NSW SCT020 BECMG 2107/2109 28010KT BECMG 2110/2112 28015G30KT TEMPO 2111/2119 4500 SHRA BKN013CB PROB30 TEMPO 2111/2116 29020G40KT BECMG 2119/2121 26010KT =
Start Support Fernwartungsmodul Fernwartung
Download im Detail
Fernwartung v.1.0
einfach unten auf Download klicken und ausführen wir teilen Ihnen dann eine ID NR. mit, diese dann eintragen und los gehts


Daten

Dateigröße 1.22 MB
Downloads 1743
Sprache Deutsch
Lizenz GNU/GPL

Download

Wer ist online
Wir haben 7 Gäste online
Meine IP
Domain Check
Domain Name :
Check All Domain Types
.com .net .info .org .biz .co.uk .name .cc .us .tv .eu .edu .mobi .nl .ca